sensor_id;sensor_type;location;lat;lon;timestamp;pressure;altitude;pressure_sealevel;temperature;humidity
78337;BME280;67610;51.588;7.002;2023-06-26T00:01:18;100510.41;;;25.86;40.85
78337;BME280;67610;51.588;7.002;2023-06-26T00:03:47;100506.66;;;25.87;40.55
78337;BME280;67610;51.588;7.002;2023-06-26T00:06:13;100493.94;;;25.82;40.86
78337;BME280;67610;51.588;7.002;2023-06-26T00:08:41;100502.53;;;25.79;41.21
78337;BME280;67610;51.588;7.002;2023-06-26T00:11:08;100503.28;;;25.75;41.01
78337;BME280;67610;51.588;7.002;2023-06-26T00:13:33;100505.44;;;25.73;40.82
78337;BME280;67610;51.588;7.002;2023-06-26T00:15:59;100503.22;;;25.70;40.83
78337;BME280;67610;51.588;7.002;2023-06-26T00:18:28;100496.22;;;25.69;40.82
78337;BME280;67610;51.588;7.002;2023-06-26T00:20:53;100499.44;;;25.65;40.46
78337;BME280;67610;51.588;7.002;2023-06-26T00:23:18;100500.75;;;25.63;40.91
78337;BME280;67610;51.588;7.002;2023-06-26T00:25:44;100502.88;;;25.61;41.24
78337;BME280;67610;51.588;7.002;2023-06-26T00:28:09;100503.97;;;25.60;40.80
78337;BME280;67610;51.588;7.002;2023-06-26T00:30:35;100505.28;;;25.57;41.22
78337;BME280;67610;51.588;7.002;2023-06-26T00:33:00;100500.38;;;25.54;40.85
78337;BME280;67610;51.588;7.002;2023-06-26T00:35:26;100497.69;;;25.54;40.92
78337;BME280;67610;51.588;7.002;2023-06-26T00:37:51;100502.75;;;25.51;41.18
78337;BME280;67610;51.588;7.002;2023-06-26T00:40:16;100494.38;;;25.47;40.95
78337;BME280;67610;51.588;7.002;2023-06-26T00:42:42;100494.88;;;25.44;41.04
78337;BME280;67610;51.588;7.002;2023-06-26T00:45:07;100500.50;;;25.43;41.07
78337;BME280;67610;51.588;7.002;2023-06-26T00:47:33;100492.69;;;25.41;41.04
78337;BME280;67610;51.588;7.002;2023-06-26T00:49:58;100492.09;;;25.39;41.54
78337;BME280;67610;51.588;7.002;2023-06-26T00:52:24;100486.97;;;25.38;41.46
78337;BME280;67610;51.588;7.002;2023-06-26T00:54:49;100486.66;;;25.34;41.42
78337;BME280;67610;51.588;7.002;2023-06-26T00:57:19;100483.91;;;25.29;41.55
78337;BME280;67610;51.588;7.002;2023-06-26T00:59:45;100483.66;;;25.31;41.35
78337;BME280;67610;51.588;7.002;2023-06-26T01:02:10;100479.56;;;25.28;41.88
78337;BME280;67610;51.588;7.002;2023-06-26T01:04:36;100479.03;;;25.26;41.60
78337;BME280;67610;51.588;7.002;2023-06-26T01:07:02;100484.66;;;25.25;41.43
78337;BME280;67610;51.588;7.002;2023-06-26T01:09:29;100474.66;;;25.20;41.89
78337;BME280;67610;51.588;7.002;2023-06-26T01:11:55;100475.22;;;25.22;41.75
78337;BME280;67610;51.588;7.002;2023-06-26T01:14:21;100476.78;;;25.18;42.13
78337;BME280;67610;51.588;7.002;2023-06-26T01:16:46;100467.56;;;25.14;41.72
78337;BME280;67610;51.588;7.002;2023-06-26T01:19:19;100479.91;;;25.10;42.45
78337;BME280;67610;51.588;7.002;2023-06-26T01:21:52;100475.34;;;25.11;42.16
78337;BME280;67610;51.588;7.002;2023-06-26T01:24:19;100473.41;;;25.06;42.44
78337;BME280;67610;51.588;7.002;2023-06-26T01:26:48;100466.31;;;25.00;42.36
78337;BME280;67610;51.588;7.002;2023-06-26T01:29:15;100463.06;;;24.98;42.49
78337;BME280;67610;51.588;7.002;2023-06-26T01:31:43;100465.44;;;24.94;42.21
78337;BME280;67610;51.588;7.002;2023-06-26T01:34:16;100459.44;;;24.87;42.79
78337;BME280;67610;51.588;7.002;2023-06-26T01:36:42;100455.34;;;24.85;42.57
78337;BME280;67610;51.588;7.002;2023-06-26T01:39:07;100445.66;;;24.84;42.48
78337;BME280;67610;51.588;7.002;2023-06-26T01:41:34;100456.41;;;24.84;42.86
78337;BME280;67610;51.588;7.002;2023-06-26T01:46:49;100447.22;;;24.80;43.04
78337;BME280;67610;51.588;7.002;2023-06-26T01:49:27;100450.38;;;24.77;43.09
78337;BME280;67610;51.588;7.002;2023-06-26T01:55:05;100448.69;;;24.71;43.64
78337;BME280;67610;51.588;7.002;2023-06-26T01:57:35;100450.81;;;24.69;43.50
78337;BME280;67610;51.588;7.002;2023-06-26T02:00:02;100453.75;;;24.67;43.64
78337;BME280;67610;51.588;7.002;2023-06-26T02:02:28;100455.06;;;24.65;43.30
78337;BME280;67610;51.588;7.002;2023-06-26T02:04:54;100453.91;;;24.61;43.64
78337;BME280;67610;51.588;7.002;2023-06-26T02:07:20;100455.47;;;24.57;43.45
78337;BME280;67610;51.588;7.002;2023-06-26T02:09:45;100460.53;;;24.53;44.01
78337;BME280;67610;51.588;7.002;2023-06-26T02:12:10;100451.09;;;24.51;44.07
78337;BME280;67610;51.588;7.002;2023-06-26T02:14:36;100447.84;;;24.49;43.97
78337;BME280;67610;51.588;7.002;2023-06-26T02:17:01;100452.66;;;24.47;44.24
78337;BME280;67610;51.588;7.002;2023-06-26T02:19:26;100462.25;;;24.43;44.04
78337;BME280;67610;51.588;7.002;2023-06-26T02:21:55;100450.09;;;24.40;44.38
78337;BME280;67610;51.588;7.002;2023-06-26T02:24:21;100459.47;;;24.38;44.14
78337;BME280;67610;51.588;7.002;2023-06-26T02:26:46;100455.66;;;24.34;43.95
78337;BME280;67610;51.588;7.002;2023-06-26T02:29:12;100458.03;;;24.30;44.33
78337;BME280;67610;51.588;7.002;2023-06-26T02:31:37;100474.47;;;24.34;43.93
78337;BME280;67610;51.588;7.002;2023-06-26T02:34:04;100475.00;;;24.31;43.93
78337;BME280;67610;51.588;7.002;2023-06-26T02:36:29;100468.72;;;24.25;44.22
78337;BME280;67610;51.588;7.002;2023-06-26T02:38:55;100467.31;;;24.22;44.23
78337;BME280;67610;51.588;7.002;2023-06-26T02:41:20;100474.34;;;24.23;44.00
78337;BME280;67610;51.588;7.002;2023-06-26T02:43:46;100472.69;;;24.22;43.98
78337;BME280;67610;51.588;7.002;2023-06-26T02:46:11;100474.34;;;24.23;44.23
78337;BME280;67610;51.588;7.002;2023-06-26T02:48:36;100478.06;;;24.22;44.13
78337;BME280;67610;51.588;7.002;2023-06-26T02:51:02;100488.00;;;24.22;44.00
78337;BME280;67610;51.588;7.002;2023-06-26T02:53:36;100482.31;;;24.18;44.41
78337;BME280;67610;51.588;7.002;2023-06-26T02:56:01;100484.44;;;24.16;44.60
78337;BME280;67610;51.588;7.002;2023-06-26T02:58:27;100480.09;;;24.15;44.03
78337;BME280;67610;51.588;7.002;2023-06-26T03:00:52;100484.91;;;24.13;44.01
78337;BME280;67610;51.588;7.002;2023-06-26T03:03:18;100483.03;;;24.14;43.87
78337;BME280;67610;51.588;7.002;2023-06-26T03:05:44;100487.50;;;24.08;43.60
78337;BME280;67610;51.588;7.002;2023-06-26T03:08:10;100483.22;;;24.07;43.66
78337;BME280;67610;51.588;7.002;2023-06-26T03:10:35;100489.63;;;24.06;43.93
78337;BME280;67610;51.588;7.002;2023-06-26T03:13:00;100494.66;;;24.03;43.92
78337;BME280;67610;51.588;7.002;2023-06-26T03:15:32;100503.88;;;24.07;43.47
78337;BME280;67610;51.588;7.002;2023-06-26T03:17:57;100497.09;;;24.04;43.70
78337;BME280;67610;51.588;7.002;2023-06-26T03:20:23;100495.44;;;24.03;43.81
78337;BME280;67610;51.588;7.002;2023-06-26T03:22:48;100501.06;;;24.02;43.84
78337;BME280;67610;51.588;7.002;2023-06-26T03:25:13;100503.91;;;23.95;44.34
78337;BME280;67610;51.588;7.002;2023-06-26T03:27:39;100507.19;;;23.97;44.26
78337;BME280;67610;51.588;7.002;2023-06-26T03:30:04;100503.34;;;23.93;44.66
78337;BME280;67610;51.588;7.002;2023-06-26T03:32:30;100516.78;;;23.93;44.81
78337;BME280;67610;51.588;7.002;2023-06-26T03:34:55;100515.63;;;23.89;45.32
78337;BME280;67610;51.588;7.002;2023-06-26T03:37:21;100514.00;;;23.88;45.35
78337;BME280;67610;51.588;7.002;2023-06-26T03:39:47;100518.81;;;23.86;45.88
78337;BME280;67610;51.588;7.002;2023-06-26T03:42:12;100515.31;;;23.86;45.52
78337;BME280;67610;51.588;7.002;2023-06-26T03:44:37;100512.34;;;23.87;45.40
78337;BME280;67610;51.588;7.002;2023-06-26T03:47:03;100517.72;;;23.87;45.56
78337;BME280;67610;51.588;7.002;2023-06-26T03:49:28;100508.94;;;23.92;45.98
78337;BME280;67610;51.588;7.002;2023-06-26T03:51:54;100512.94;;;23.89;46.21
78337;BME280;67610;51.588;7.002;2023-06-26T03:54:19;100514.81;;;23.89;46.43
78337;BME280;67610;51.588;7.002;2023-06-26T03:56:44;100512.13;;;23.89;46.72
78337;BME280;67610;51.588;7.002;2023-06-26T03:59:10;100518.31;;;23.89;46.58
78337;BME280;67610;51.588;7.002;2023-06-26T04:01:37;100524.84;;;23.93;47.41
78337;BME280;67610;51.588;7.002;2023-06-26T04:04:02;100527.03;;;23.96;47.13
78337;BME280;67610;51.588;7.002;2023-06-26T04:06:28;100525.06;;;23.92;47.29
78337;BME280;67610;51.588;7.002;2023-06-26T04:08:53;100532.41;;;23.96;47.91
78337;BME280;67610;51.588;7.002;2023-06-26T04:11:19;100534.88;;;23.98;48.47
78337;BME280;67610;51.588;7.002;2023-06-26T04:13:44;100540.47;;;23.96;48.79
78337;BME280;67610;51.588;7.002;2023-06-26T04:16:09;100547.00;;;24.00;48.44
78337;BME280;67610;51.588;7.002;2023-06-26T04:18:39;100545.78;;;23.91;49.27
78337;BME280;67610;51.588;7.002;2023-06-26T04:21:06;100544.03;;;23.85;49.95
78337;BME280;67610;51.588;7.002;2023-06-26T04:23:32;100548.56;;;23.85;49.47
78337;BME280;67610;51.588;7.002;2023-06-26T04:25:58;100551.72;;;23.93;49.37
78337;BME280;67610;51.588;7.002;2023-06-26T04:28:24;100554.31;;;23.88;49.65
78337;BME280;67610;51.588;7.002;2023-06-26T04:30:49;100548.94;;;23.88;49.68
78337;BME280;67610;51.588;7.002;2023-06-26T04:33:15;100559.22;;;23.91;49.67
78337;BME280;67610;51.588;7.002;2023-06-26T04:35:40;100562.63;;;24.03;49.42
78337;BME280;67610;51.588;7.002;2023-06-26T04:38:06;100557.13;;;24.10;49.66
78337;BME280;67610;51.588;7.002;2023-06-26T04:40:31;100564.19;;;24.27;48.80
78337;BME280;67610;51.588;7.002;2023-06-26T04:42:56;100562.63;;;24.32;48.69
78337;BME280;67610;51.588;7.002;2023-06-26T04:45:25;100556.13;;;24.44;48.63
78337;BME280;67610;51.588;7.002;2023-06-26T04:47:50;100563.13;;;24.62;48.32
78337;BME280;67610;51.588;7.002;2023-06-26T04:50:15;100567.25;;;24.81;48.01
78337;BME280;67610;51.588;7.002;2023-06-26T04:52:43;100566.81;;;24.89;47.41
78337;BME280;67610;51.588;7.002;2023-06-26T04:55:09;100565.56;;;25.13;46.91
78337;BME280;67610;51.588;7.002;2023-06-26T04:57:34;100569.59;;;25.32;46.23
78337;BME280;67610;51.588;7.002;2023-06-26T04:59:59;100575.09;;;25.42;46.60
78337;BME280;67610;51.588;7.002;2023-06-26T05:02:25;100571.28;;;25.38;46.32
78337;BME280;67610;51.588;7.002;2023-06-26T05:04:52;100571.75;;;25.52;46.01
78337;BME280;67610;51.588;7.002;2023-06-26T05:07:17;100574.88;;;25.65;45.40
78337;BME280;67610;51.588;7.002;2023-06-26T05:09:42;100571.75;;;25.74;45.39
78337;BME280;67610;51.588;7.002;2023-06-26T05:12:08;100577.03;;;25.90;45.28
78337;BME280;67610;51.588;7.002;2023-06-26T05:14:33;100577.13;;;26.00;44.65
78337;BME280;67610;51.588;7.002;2023-06-26T05:16:59;100581.84;;;26.10;44.61
78337;BME280;67610;51.588;7.002;2023-06-26T05:19:24;100589.56;;;26.28;44.25
78337;BME280;67610;51.588;7.002;2023-06-26T05:21:50;100593.75;;;26.41;43.92
78337;BME280;67610;51.588;7.002;2023-06-26T05:24:16;100589.78;;;26.53;43.59
78337;BME280;67610;51.588;7.002;2023-06-26T05:26:42;100585.03;;;26.65;43.28
78337;BME280;67610;51.588;7.002;2023-06-26T05:29:07;100596.34;;;26.62;43.65
78337;BME280;67610;51.588;7.002;2023-06-26T05:31:33;100598.47;;;26.87;43.45
78337;BME280;67610;51.588;7.002;2023-06-26T05:34:02;100604.88;;;27.13;42.15
78337;BME280;67610;51.588;7.002;2023-06-26T05:36:29;100606.78;;;27.22;42.00
78337;BME280;67610;51.588;7.002;2023-06-26T05:38:56;100609.09;;;27.40;41.60
78337;BME280;67610;51.588;7.002;2023-06-26T05:41:21;100616.25;;;27.20;42.16
78337;BME280;67610;51.588;7.002;2023-06-26T05:43:47;100613.66;;;26.66;42.32
78337;BME280;67610;51.588;7.002;2023-06-26T05:46:12;100615.63;;;26.44;43.08
78337;BME280;67610;51.588;7.002;2023-06-26T05:48:38;100629.88;;;26.13;43.83
78337;BME280;67610;51.588;7.002;2023-06-26T05:51:04;100618.03;;;26.14;43.71
78337;BME280;67610;51.588;7.002;2023-06-26T05:53:30;100621.59;;;26.19;43.42
78337;BME280;67610;51.588;7.002;2023-06-26T05:55:56;100629.75;;;26.56;43.00
78337;BME280;67610;51.588;7.002;2023-06-26T05:58:23;100622.31;;;26.68;42.78
78337;BME280;67610;51.588;7.002;2023-06-26T06:00:51;100630.38;;;26.63;42.81
78337;BME280;67610;51.588;7.002;2023-06-26T06:03:16;100628.34;;;27.12;41.59
78337;BME280;67610;51.588;7.002;2023-06-26T06:05:41;100626.41;;;27.44;40.88
78337;BME280;67610;51.588;7.002;2023-06-26T06:08:07;100638.63;;;27.57;41.18
78337;BME280;67610;51.588;7.002;2023-06-26T06:10:32;100636.84;;;27.31;41.17
78337;BME280;67610;51.588;7.002;2023-06-26T06:12:57;100627.75;;;27.42;41.25
78337;BME280;67610;51.588;7.002;2023-06-26T06:15:23;100635.72;;;27.27;41.59
78337;BME280;67610;51.588;7.002;2023-06-26T06:17:48;100636.03;;;26.93;42.24
78337;BME280;67610;51.588;7.002;2023-06-26T06:20:14;100642.75;;;26.59;42.58
78337;BME280;67610;51.588;7.002;2023-06-26T06:22:39;100639.41;;;26.47;42.77
78337;BME280;67610;51.588;7.002;2023-06-26T06:25:05;100637.19;;;26.44;43.06
78337;BME280;67610;51.588;7.002;2023-06-26T06:27:30;100652.53;;;26.39;43.32
78337;BME280;67610;51.588;7.002;2023-06-26T06:29:56;100647.31;;;26.27;43.40
78337;BME280;67610;51.588;7.002;2023-06-26T06:32:22;100654.22;;;26.18;43.70
78337;BME280;67610;51.588;7.002;2023-06-26T06:34:47;100662.03;;;26.46;43.27
78337;BME280;67610;51.588;7.002;2023-06-26T06:37:12;100661.06;;;26.84;42.51
78337;BME280;67610;51.588;7.002;2023-06-26T06:39:38;100667.84;;;26.86;42.58
78337;BME280;67610;51.588;7.002;2023-06-26T06:42:03;100670.88;;;26.95;43.16
78337;BME280;67610;51.588;7.002;2023-06-26T06:44:29;100676.94;;;26.75;43.11
78337;BME280;67610;51.588;7.002;2023-06-26T06:46:55;100682.13;;;27.19;42.22
78337;BME280;67610;51.588;7.002;2023-06-26T06:49:21;100688.56;;;27.13;41.84
78337;BME280;67610;51.588;7.002;2023-06-26T06:51:46;100692.44;;;27.22;42.54
78337;BME280;67610;51.588;7.002;2023-06-26T06:54:12;100698.03;;;27.47;41.89
78337;BME280;67610;51.588;7.002;2023-06-26T06:56:37;100702.72;;;27.66;41.55
78337;BME280;67610;51.588;7.002;2023-06-26T06:59:03;100700.59;;;27.74;41.55
78337;BME280;67610;51.588;7.002;2023-06-26T07:01:28;100696.69;;;28.01;41.47
78337;BME280;67610;51.588;7.002;2023-06-26T07:03:54;100706.56;;;28.38;41.30
78337;BME280;67610;51.588;7.002;2023-06-26T07:06:25;100703.13;;;28.67;40.67
78337;BME280;67610;51.588;7.002;2023-06-26T07:08:50;100712.66;;;29.00;39.41
78337;BME280;67610;51.588;7.002;2023-06-26T07:11:16;100714.78;;;28.98;39.68
78337;BME280;67610;51.588;7.002;2023-06-26T07:13:41;100708.31;;;29.04;39.16
78337;BME280;67610;51.588;7.002;2023-06-26T07:16:07;100718.03;;;29.45;38.75
78337;BME280;67610;51.588;7.002;2023-06-26T07:18:32;100710.13;;;29.64;38.54
78337;BME280;67610;51.588;7.002;2023-06-26T07:20:58;100712.28;;;29.72;37.81
78337;BME280;67610;51.588;7.002;2023-06-26T07:23:23;100717.16;;;29.90;37.55
78337;BME280;67610;51.588;7.002;2023-06-26T07:25:48;100717.44;;;29.68;37.38
78337;BME280;67610;51.588;7.002;2023-06-26T07:28:14;100718.00;;;29.65;38.27
78337;BME280;67610;51.588;7.002;2023-06-26T07:30:39;100717.97;;;29.86;37.94
78337;BME280;67610;51.588;7.002;2023-06-26T07:33:05;100711.97;;;29.94;37.84
78337;BME280;67610;51.588;7.002;2023-06-26T07:35:30;100711.31;;;30.17;37.32
78337;BME280;67610;51.588;7.002;2023-06-26T07:37:56;100708.47;;;30.47;36.55
78337;BME280;67610;51.588;7.002;2023-06-26T07:40:21;100716.66;;;30.42;37.27
78337;BME280;67610;51.588;7.002;2023-06-26T07:42:46;100709.69;;;30.70;36.17
78337;BME280;67610;51.588;7.002;2023-06-26T07:45:12;100717.81;;;30.70;36.24
78337;BME280;67610;51.588;7.002;2023-06-26T07:47:38;100719.16;;;31.11;35.93
78337;BME280;67610;51.588;7.002;2023-06-26T07:50:04;100721.22;;;31.53;35.59
78337;BME280;67610;51.588;7.002;2023-06-26T07:52:29;100722.88;;;32.01;33.76
78337;BME280;67610;51.588;7.002;2023-06-26T07:54:58;100727.53;;;32.01;34.25
78337;BME280;67610;51.588;7.002;2023-06-26T07:57:24;100727.28;;;31.97;34.16
78337;BME280;67610;51.588;7.002;2023-06-26T07:59:50;100733.53;;;32.21;33.92
78337;BME280;67610;51.588;7.002;2023-06-26T08:02:15;100737.91;;;32.78;33.56
78337;BME280;67610;51.588;7.002;2023-06-26T08:04:41;100735.63;;;33.04;32.18
78337;BME280;67610;51.588;7.002;2023-06-26T08:07:07;100738.84;;;33.06;31.73
78337;BME280;67610;51.588;7.002;2023-06-26T08:09:32;100755.22;;;33.06;31.64
78337;BME280;67610;51.588;7.002;2023-06-26T08:11:58;100750.50;;;33.12;31.48
78337;BME280;67610;51.588;7.002;2023-06-26T08:14:23;100752.50;;;33.06;31.78
78337;BME280;67610;51.588;7.002;2023-06-26T08:16:49;100757.16;;;33.19;32.02
78337;BME280;67610;51.588;7.002;2023-06-26T08:19:15;100758.09;;;33.28;31.82
78337;BME280;67610;51.588;7.002;2023-06-26T08:21:42;100763.50;;;33.47;30.77
78337;BME280;67610;51.588;7.002;2023-06-26T08:24:07;100764.88;;;33.31;30.65
78337;BME280;67610;51.588;7.002;2023-06-26T08:26:34;100770.59;;;32.60;31.75
78337;BME280;67610;51.588;7.002;2023-06-26T08:28:59;100770.47;;;32.51;32.07
78337;BME280;67610;51.588;7.002;2023-06-26T08:31:24;100772.25;;;32.37;31.63
78337;BME280;67610;51.588;7.002;2023-06-26T08:33:50;100770.75;;;32.50;31.01
78337;BME280;67610;51.588;7.002;2023-06-26T08:36:15;100777.50;;;32.10;32.34
78337;BME280;67610;51.588;7.002;2023-06-26T08:38:41;100775.34;;;32.07;32.50
78337;BME280;67610;51.588;7.002;2023-06-26T08:41:07;100782.66;;;32.11;32.70
78337;BME280;67610;51.588;7.002;2023-06-26T08:43:33;100781.91;;;32.48;32.62
78337;BME280;67610;51.588;7.002;2023-06-26T08:45:59;100779.97;;;32.54;32.37
78337;BME280;67610;51.588;7.002;2023-06-26T08:48:24;100784.22;;;32.60;31.79
78337;BME280;67610;51.588;7.002;2023-06-26T08:50:52;100795.19;;;32.31;31.79
78337;BME280;67610;51.588;7.002;2023-06-26T08:53:50;100792.34;;;31.70;32.69
78337;BME280;67610;51.588;7.002;2023-06-26T08:56:18;100805.75;;;31.23;33.98
78337;BME280;67610;51.588;7.002;2023-06-26T08:58:46;100803.72;;;30.56;34.78
78337;BME280;67610;51.588;7.002;2023-06-26T09:01:12;100796.13;;;31.01;34.28
78337;BME280;67610;51.588;7.002;2023-06-26T09:03:37;100798.69;;;31.27;33.97
78337;BME280;67610;51.588;7.002;2023-06-26T09:06:03;100797.00;;;31.64;33.05
78337;BME280;67610;51.588;7.002;2023-06-26T09:08:28;100802.91;;;31.71;32.74
78337;BME280;67610;51.588;7.002;2023-06-26T09:10:54;100800.84;;;32.16;32.88
78337;BME280;67610;51.588;7.002;2023-06-26T09:13:22;100810.31;;;32.42;32.36
78337;BME280;67610;51.588;7.002;2023-06-26T09:15:48;100809.06;;;32.95;30.90
78337;BME280;67610;51.588;7.002;2023-06-26T09:18:17;100802.56;;;32.73;31.15
78337;BME280;67610;51.588;7.002;2023-06-26T09:20:43;100806.16;;;32.68;31.15
78337;BME280;67610;51.588;7.002;2023-06-26T09:23:09;100810.44;;;32.56;31.67
78337;BME280;67610;51.588;7.002;2023-06-26T09:25:38;100812.38;;;33.11;30.33
78337;BME280;67610;51.588;7.002;2023-06-26T09:28:04;100802.00;;;33.45;29.96
78337;BME280;67610;51.588;7.002;2023-06-26T09:30:32;100813.66;;;33.97;29.06
78337;BME280;67610;51.588;7.002;2023-06-26T09:32:57;100802.97;;;33.68;29.14
78337;BME280;67610;51.588;7.002;2023-06-26T09:35:23;100805.47;;;34.10;28.23
78337;BME280;67610;51.588;7.002;2023-06-26T09:37:49;100810.75;;;34.34;28.65
78337;BME280;67610;51.588;7.002;2023-06-26T09:40:14;100816.41;;;34.24;28.33
78337;BME280;67610;51.588;7.002;2023-06-26T09:42:41;100811.03;;;34.19;27.35
78337;BME280;67610;51.588;7.002;2023-06-26T09:45:07;100815.31;;;34.25;27.54
78337;BME280;67610;51.588;7.002;2023-06-26T09:47:34;100816.59;;;34.41;27.30
78337;BME280;67610;51.588;7.002;2023-06-26T09:50:02;100808.81;;;34.48;26.94
78337;BME280;67610;51.588;7.002;2023-06-26T09:52:28;100813.84;;;34.00;28.26
78337;BME280;67610;51.588;7.002;2023-06-26T09:55:09;100822.72;;;33.46;28.34
78337;BME280;67610;51.588;7.002;2023-06-26T09:57:35;100829.66;;;33.57;27.71
78337;BME280;67610;51.588;7.002;2023-06-26T10:00:04;100824.97;;;33.90;26.68
78337;BME280;67610;51.588;7.002;2023-06-26T10:02:30;100825.19;;;34.48;26.10
78337;BME280;67610;51.588;7.002;2023-06-26T10:04:55;100819.91;;;34.65;26.12
78337;BME280;67610;51.588;7.002;2023-06-26T10:07:21;100824.25;;;35.16;25.75
78337;BME280;67610;51.588;7.002;2023-06-26T10:09:48;100818.44;;;34.59;24.64
78337;BME280;67610;51.588;7.002;2023-06-26T10:12:19;100827.63;;;34.22;26.04
78337;BME280;67610;51.588;7.002;2023-06-26T10:14:49;100828.31;;;34.01;25.91
78337;BME280;67610;51.588;7.002;2023-06-26T10:17:16;100832.47;;;33.34;26.82
78337;BME280;67610;51.588;7.002;2023-06-26T10:19:44;100826.41;;;33.04;26.90
78337;BME280;67610;51.588;7.002;2023-06-26T10:22:15;100823.81;;;33.13;26.77
78337;BME280;67610;51.588;7.002;2023-06-26T10:24:43;100820.94;;;33.23;26.45
78337;BME280;67610;51.588;7.002;2023-06-26T10:27:17;100825.38;;;33.33;26.74
78337;BME280;67610;51.588;7.002;2023-06-26T10:29:47;100826.72;;;33.67;26.76
78337;BME280;67610;51.588;7.002;2023-06-26T10:32:14;100835.47;;;33.83;25.45
78337;BME280;67610;51.588;7.002;2023-06-26T10:34:41;100835.25;;;33.93;25.29
78337;BME280;67610;51.588;7.002;2023-06-26T10:37:07;100839.53;;;33.99;24.99
78337;BME280;67610;51.588;7.002;2023-06-26T10:39:52;100848.28;;;34.15;24.71
78337;BME280;67610;51.588;7.002;2023-06-26T10:42:33;100846.09;;;33.52;25.49
78337;BME280;67610;51.588;7.002;2023-06-26T10:45:08;100834.81;;;32.84;26.54
78337;BME280;67610;51.588;7.002;2023-06-26T10:47:34;100842.66;;;32.49;26.98
78337;BME280;67610;51.588;7.002;2023-06-26T10:50:21;100846.66;;;32.09;28.47
78337;BME280;67610;51.588;7.002;2023-06-26T10:56:02;100853.34;;;31.88;28.33
78337;BME280;67610;51.588;7.002;2023-06-26T11:03:40;100871.41;;;31.79;27.86
78337;BME280;67610;51.588;7.002;2023-06-26T11:06:27;100869.50;;;31.79;27.90
78337;BME280;67610;51.588;7.002;2023-06-26T11:09:01;100868.91;;;31.53;27.43
78337;BME280;67610;51.588;7.002;2023-06-26T11:14:19;100878.63;;;31.59;27.02
78337;BME280;67610;51.588;7.002;2023-06-26T11:16:45;100878.72;;;31.83;26.73
78337;BME280;67610;51.588;7.002;2023-06-26T11:19:11;100869.94;;;32.20;25.97
78337;BME280;67610;51.588;7.002;2023-06-26T11:21:37;100869.19;;;32.14;26.01
78337;BME280;67610;51.588;7.002;2023-06-26T11:24:04;100863.25;;;32.31;25.76
78337;BME280;67610;51.588;7.002;2023-06-26T11:26:31;100877.69;;;32.31;25.38
78337;BME280;67610;51.588;7.002;2023-06-26T11:29:02;100884.13;;;32.40;25.93
78337;BME280;67610;51.588;7.002;2023-06-26T11:31:30;100882.59;;;32.06;25.64
78337;BME280;67610;51.588;7.002;2023-06-26T11:33:58;100883.31;;;32.16;25.74
78337;BME280;67610;51.588;7.002;2023-06-26T11:36:25;100889.41;;;32.03;26.44
78337;BME280;67610;51.588;7.002;2023-06-26T11:38:58;100887.91;;;32.21;26.10
78337;BME280;67610;51.588;7.002;2023-06-26T11:41:27;100887.31;;;32.24;26.34
78337;BME280;67610;51.588;7.002;2023-06-26T11:43:53;100888.06;;;32.29;25.06
78337;BME280;67610;51.588;7.002;2023-06-26T11:46:20;100892.28;;;31.88;24.75
78337;BME280;67610;51.588;7.002;2023-06-26T11:48:45;100888.34;;;32.04;25.12
78337;BME280;67610;51.588;7.002;2023-06-26T11:51:17;100890.31;;;32.22;24.42
78337;BME280;67610;51.588;7.002;2023-06-26T11:53:44;100903.69;;;31.90;24.37
78337;BME280;67610;51.588;7.002;2023-06-26T11:58:36;100902.94;;;30.97;25.80
78337;BME280;67610;51.588;7.002;2023-06-26T12:01:02;100907.19;;;30.59;25.77
78337;BME280;67610;51.588;7.002;2023-06-26T12:03:29;100912.28;;;30.76;25.71
78337;BME280;67610;51.588;7.002;2023-06-26T12:05:55;100913.16;;;30.51;25.92
78337;BME280;67610;51.588;7.002;2023-06-26T12:08:20;100910.94;;;30.68;25.08
78337;BME280;67610;51.588;7.002;2023-06-26T12:10:46;100901.94;;;30.78;23.29
78337;BME280;67610;51.588;7.002;2023-06-26T12:13:12;100912.53;;;30.74;24.59
78337;BME280;67610;51.588;7.002;2023-06-26T12:15:37;100918.41;;;31.01;24.01
78337;BME280;67610;51.588;7.002;2023-06-26T12:18:09;100921.72;;;30.98;24.79
78337;BME280;67610;51.588;7.002;2023-06-26T12:20:40;100936.97;;;30.84;23.87
78337;BME280;67610;51.588;7.002;2023-06-26T12:23:11;100923.31;;;30.99;23.36
78337;BME280;67610;51.588;7.002;2023-06-26T12:25:37;100936.97;;;30.74;22.65
78337;BME280;67610;51.588;7.002;2023-06-26T12:28:03;100930.81;;;30.59;22.85
78337;BME280;67610;51.588;7.002;2023-06-26T12:30:28;100928.38;;;30.52;22.94
78337;BME280;67610;51.588;7.002;2023-06-26T12:32:54;100940.84;;;30.53;24.00
78337;BME280;67610;51.588;7.002;2023-06-26T12:35:19;100941.91;;;30.62;23.75
78337;BME280;67610;51.588;7.002;2023-06-26T12:37:44;100933.94;;;30.86;23.27
78337;BME280;67610;51.588;7.002;2023-06-26T12:40:20;100959.81;;;30.73;23.13
78337;BME280;67610;51.588;7.002;2023-06-26T12:42:48;100955.53;;;30.42;24.40
78337;BME280;67610;51.588;7.002;2023-06-26T12:45:14;100963.41;;;30.44;24.37
78337;BME280;67610;51.588;7.002;2023-06-26T12:47:39;100974.00;;;30.30;25.32
78337;BME280;67610;51.588;7.002;2023-06-26T12:50:06;100968.59;;;30.10;25.42
78337;BME280;67610;51.588;7.002;2023-06-26T12:52:32;100960.19;;;29.96;25.23
78337;BME280;67610;51.588;7.002;2023-06-26T12:54:57;100959.63;;;29.84;26.47
78337;BME280;67610;51.588;7.002;2023-06-26T12:57:23;100961.00;;;29.92;25.88
78337;BME280;67610;51.588;7.002;2023-06-26T12:59:49;100966.44;;;30.02;24.13
78337;BME280;67610;51.588;7.002;2023-06-26T13:02:14;100959.91;;;29.88;23.05
78337;BME280;67610;51.588;7.002;2023-06-26T13:04:40;100953.31;;;29.53;24.02
78337;BME280;67610;51.588;7.002;2023-06-26T13:07:09;100949.47;;;29.19;24.41